Station: Centre Island

  Atmospheric Gas Attenuation - ITU Rec 676-11   --------------- db/100km ---------------
Date Time Temp RH % AH g/m3 Dew Point Wind Direction Speed kph Gust kph Barometer mB Rainfall Since 9am 24GHz 47GHz 76GHz 122GHz 134GHz 241GHz
11 21:30 28.8 68 19.32 22.3 15 17 1010.9 0 41.3 38.8 74.7 197.7 218.0 757.8
11 21:20 29 69 19.82 22.7 13 15 1010.9 0 42.3 39.6 76.8 203.2 224.8 781.5
11 21:10 29 66 18.96 22.2 13 15 1010.8 0 40.5 38.0 72.9 192.9 212.2 737.5
11 21:00 29 68 19.53 22.5 17 20 1010.7 0 41.7 39.0 75.5 199.7 220.5 766.5
11 20:50 28.9 69 19.71 22.6 17 19 1010.6 0 42.1 39.4 76.4 202.1 223.5 776.7
11 20:40 29 69 19.82 22.7 19 20 1010.7 0 42.3 39.6 76.8 203.2 224.8 781.4
11 20:30 29 70 20.11 23 15 19 1010.6 0 42.9 40.1 78.1 206.7 229.1 796.4
11 20:20 29 70 20.11 23 17 19 1010.5 0 42.9 40.1 78.1 206.7 229.1 796.3
11 20:10 29.1 70 20.22 23.1 17 19 1010.5 0 43.1 40.2 78.5 207.8 230.4 801.0
11 20:00 29.2 68 19.75 22.7 19 20 1010.3 0 42.1 39.3 76.2 201.8 223.1 775.5
11 19:50 29.4 68 19.96 22.9 17 19 1010.2 0 42.5 39.6 77.0 203.8 225.6 784.3
11 19:40 29.4 66 19.38 22.4 17 20 1010.2 0 41.3 38.6 74.4 196.8 217.1 754.6
11 19:30 29.4 66 19.38 22.4 19 20 1010.1 0 41.3 38.6 74.4 196.8 217.1 754.5
11 19:20 29.5 64 18.89 22 15 19 1010 0 40.3 37.6 72.1 190.7 209.7 728.8
11 19:10 29.6 64 19 22.1 19 20 1010 0 40.5 37.8 72.5 191.8 211.0 733.3
11 19:00 29.7 63 18.8 21.9 17 20 1009.9 0 40.1 37.4 71.5 189.2 207.8 722.3
11 18:50 29.7 61 18.2 21.4 17 19 1009.8 0 38.8 36.3 68.9 182.2 199.2 692.5
11 18:40 29.9 60 18.1 21.3 15 17 1009.8 0 38.6 36.1 68.3 180.6 197.3 685.9
11 18:30 30.1 56 17.08 20.6 15 19 1009.8 0 36.4 34.2 63.8 168.6 182.7 635.0
11 18:20 30.3 54 16.65 20.2 13 15 1009.8 0 35.5 33.4 61.8 163.5 176.4 613.1
11 18:10 30.5 55 17.14 20.7 15 17 1009.8 0 36.5 34.2 63.7 168.4 182.6 634.6
11 18:00 30.8 50 15.83 19.2 11 15 1009.7 0 33.8 31.9 58.1 153.6 164.4 571.4
11 17:50 31 50 16.01 19.4 15 17 1009.6 0 34.1 32.1 58.7 155.1 166.4 578.1
11 17:40 31.8 39 13.03 16.5 7 9 1009.5 0 27.9 27.3 46.8 123.4 127.6 443.0
11 17:30 32.1 41 13.92 17.2 9 11 1009.4 0 29.7 28.5 49.9 131.7 137.8 478.6
11 17:20 32.2 41 13.99 17.3 7 9 1009.4 0 29.8 28.6 50.1 132.2 138.5 481.0
11 17:10 32.5 39 13.53 16.8 9 9 1009.4 0 28.9 27.8 48.2 127.2 132.4 459.8
11 17:00 32.7 40 14.02 17.7 7 11 1009.3 0 29.9 28.4 49.9 131.7 138.0 479.2
11 16:50 32.9 38 13.46 16.7 6 6 1009.3 0 28.7 27.6 47.7 125.9 130.9 454.6
11 16:40 33.3 36 13.02 16.2 7 7 1009.2 0 27.8 26.8 45.9 121.0 125.1 434.3
11 16:30 33.3 34 12.3 15.3 6 7 1009.2 0 26.3 25.8 43.4 114.3 116.8 405.2
11 16:20 33.7 33 12.19 15.2 6 7 1009.1 0 26.0 25.5 42.8 112.7 115.0 398.9
11 16:10 34.2 32 12.14 15.6 6 7 1009.1 0 25.9 25.3 42.3 111.6 113.7 394.5
11 16:00 34.3 32 12.2 15.7 4 7 1009 0 26.0 25.3 42.5 112.0 114.2 396.3
11 15:50 33.3 31 11.22 13.9 7 9 1009 0 24.1 24.3 39.7 104.4 104.7 362.7
11 15:40 34 31 11.64 14.5 6 6 1008.9 0 24.9 24.6 40.7 107.3 108.4 375.8
11 15:30 34.2 32 12.14 15.6 6 7 1008.8 0 25.9 25.3 42.3 111.5 113.7 394.4
11 15:20 33.6 30 11.03 14.1 6 6 1008.8 0 23.7 23.9 38.9 102.3 102.2 354.1
11 15:10 33.6 34 12.5 15.6 7 7 1008.9 0 26.7 25.9 43.9 115.7 118.6 411.6
11 15:00 33.2 31 11.16 13.8 7 9 1009 0 24.0 24.2 39.5 104.0 104.1 360.9
11 14:50 33.5 29 10.6 13.5 7 7 1009.1 0 22.8 23.4 37.5 98.7 97.6 338.2
11 14:40 34 30 11.26 14 7 9 1009.1 0 24.1 24.1 39.5 103.9 104.2 361.2
11 14:30 34.1 31 11.7 14.6 9 11 1009.1 0 25.0 24.7 40.9 107.7 108.9 377.8
11 14:20 33.4 32 11.64 14.5 7 9 1009.1 0 24.9 24.8 41.0 108.1 109.2 378.7
11 14:10 34.3 32 12.2 15.7 9 11 1009.2 0 26.0 25.3 42.5 112.0 114.2 396.4
11 14:00 33.5 32 11.7 15 11 13 1009.3 0 25.0 24.9 41.2 108.5 109.8 380.6
11 13:50 34 31 11.64 14.5 11 13 1009.5 0 24.9 24.7 40.7 107.4 108.4 376.0
11 13:40 33.9 33 12.32 15.4 15 15 1009.6 0 26.3 25.6 43.1 113.7 116.2 403.2
11 13:30 33.7 32 11.82 14.7 13 15 1009.7 0 25.3 25.0 41.5 109.4 110.9 384.5
11 13:20 33.6 33 12.13 15.1 13 15 1009.8 0 25.9 25.5 42.6 112.4 114.5 397.2
11 13:10 34.4 31 11.88 15.3 9 11 1010 0 25.4 24.9 41.4 109.0 110.6 383.6
11 13:00 34 35 13.14 16.8 15 19 1010.1 0 28.0 26.8 46.0 121.2 125.5 435.7
11 12:50 34.3 34 12.97 16.2 15 15 1010.2 0 27.6 26.5 45.2 119.2 123.1 427.3
11 12:40 34.1 32 12.08 15.5 13 15 1010.4 0 25.8 25.3 42.2 111.3 113.3 393.0
11 12:30 34.4 34 13.03 16.7 15 19 1010.5 0 27.7 26.5 45.4 119.7 123.6 429.3
11 12:20 33.8 35 13 16.6 15 17 1010.8 0 27.7 26.7 45.6 120.3 124.2 431.3
11 12:10 33.5 36 13.16 16.4 17 17 1011 0 28.0 27.0 46.4 122.3 126.6 439.5
11 12:00 33.6 37 13.6 17.3 20 24 1011.1 0 28.9 27.6 47.9 126.3 131.6 457.1
11 11:50 33.2 36 12.96 16.5 22 24 1011.2 0 27.6 26.8 45.8 120.8 124.8 433.1
11 11:40 33 42 14.96 18.4 20 22 1011.2 0 31.8 29.8 53.3 140.7 149.1 518.3
11 11:30 33.2 47 16.92 20.4 17 24 1011.3 0 35.8 32.8 60.7 160.6 173.6 603.7
11 11:20 32.4 58 20.01 23.1 7 9 1011.5 0 42.3 38.4 74.3 196.7 217.8 757.3
11 11:10 32.3 59 20.24 23.5 13 15 1011.6 0 42.8 38.8 75.4 199.7 221.3 769.8
11 11:00 31.9 58 19.48 22.6 15 19 1011.6 0 41.3 37.7 72.5 191.9 211.7 736.1
11 10:50 31.8 60 20.05 23.1 17 19 1011.8 0 42.5 38.7 75.1 198.8 220.1 765.4
11 10:40 31.3 61 19.84 23.1 17 17 1011.9 0 42.1 38.6 74.7 197.6 218.5 759.9
11 10:30 31.2 64 20.71 23.6 17 20 1012 0 43.9 40.2 78.7 208.2 231.5 805.0
11 10:20 31.4 67 21.91 24.5 17 20 1012 0 46.4 42.3 83.9 222.2 248.8 865.1
11 10:10 30.6 70 21.93 24.5 20 24 1012.3 0 46.5 42.8 84.9 224.9 251.8 875.5
11 10:00 29.6 74 21.96 24.5 20 24 1012.2 0 46.7 43.3 86.2 228.2 255.6 888.7
11 09:50 30.2 72 22.08 24.6 19 20 1012.4 0 46.9 43.3 86.1 228.0 255.5 888.2
11 09:40 29.6 76 22.56 24.9 17 19 1012.4 0 48.0 44.5 89.1 235.9 265.0 921.4
11 09:30 29.4 77 22.61 24.9 19 24 1012.4 0 48.1 44.7 89.6 237.2 266.5 926.6
11 09:20 29.6 76 22.56 24.9 20 22 1012.2 0 48.0 44.5 89.1 235.9 265.0 921.2
11 09:10 29.3 79 23.07 25.3 20 24 1012.2 0 49.1 45.6 91.9 243.4 274.2 953.1
11 09:00 29 79 22.69 25 24 30 1012.1 0 48.3 45.1 90.4 239.4 269.2 935.7
11 08:50 28.7 81 22.89 25.1 26 28 1012 0 48.8 45.6 91.8 243.0 273.5 950.6
11 08:40 28.1 82 22.42 24.7 32 33 1012.1 0 47.9 45.0 90.2 238.8 268.2 932.0
11 08:30 28.3 82 22.67 24.9 24 30 1011.9 0 48.4 45.4 91.2 241.4 271.4 943.3
11 08:20 28.2 82 22.55 24.8 22 24 1011.6 0 48.1 45.2 90.7 240.1 269.8 937.7
11 08:10 28.1 83 22.7 24.9 22 24 1011.6 0 48.5 45.6 91.5 242.4 272.6 947.3
11 08:00 28.1 84 22.97 25.1 20 28 1011.4 0 49.0 46.1 92.9 245.9 276.9 962.4
11 07:50 28 85 23.12 25.2 20 22 1011.2 0 49.4 46.4 93.7 248.2 279.7 972.0
11 07:40 27.8 87 23.4 25.4 24 26 1011.1 0 50.0 47.1 95.4 252.6 285.0 990.5
11 07:30 27.8 87 23.4 25.4 19 24 1011 0 50.0 47.1 95.4 252.6 285.0 990.4
11 07:20 27.5 89 23.55 25.5 17 19 1010.9 0 50.4 47.6 96.5 255.6 288.6 1003.0
11 07:10 27.3 88 23.03 25.1 22 24 1010.5 0 49.3 46.6 94.1 249.2 280.8 975.6
11 07:00 27.3 89 23.29 25.3 17 24 1010.3 0 49.8 47.1 95.4 252.7 285.0 990.3
11 06:50 27.3 90 23.55 25.5 17 20 1010.2 0 50.4 47.7 96.7 256.2 289.3 1005.2
11 06:40 27.3 90 23.55 25.5 15 17 1010.2 0 50.4 47.7 96.7 256.2 289.3 1005.2
11 06:30 27.4 89 23.42 25.4 17 24 1010.1 0 50.1 47.3 95.9 254.0 286.7 996.3
11 06:20 27.5 89 23.55 25.5 20 24 1010 0 50.4 47.5 96.4 255.4 288.5 1002.4
11 06:10 27.7 88 23.54 25.5 19 19 1009.8 0 50.3 47.4 96.1 254.6 287.5 999.0
11 06:00 27.3 91 23.81 25.7 11 15 1009.7 0 50.9 48.2 98.0 259.6 293.6 1020.0
11 05:50 27.2 91 23.68 25.6 9 11 1009.6 0 50.7 48.0 97.5 258.2 291.8 1013.7
11 05:40 26.8 89 22.65 24.8 6 7 1009.4 0 48.5 46.1 92.7 245.6 276.2 959.7
11 04:50 26.9 87 22.27 24.5 11 11 1009.2 0 47.7 45.3 90.7 240.2 269.6 936.8
11 04:40 27 87 22.39 24.6 9 11 1009.1 0 48.0 45.4 91.2 241.4 271.2 942.2
11 04:30 27 86 22.13 24.5 9 11 1009.2 0 47.4 44.9 89.9 238.0 267.0 927.7
11 04:20 26.9 86 22.01 24.4 9 11 1009.2 0 47.2 44.7 89.4 236.7 265.4 922.2

Last Refresh: 11-Apr-2021 21:42:34

Bureau of Meteorology